Portada
METAR-TAF:

METAR-TAF

Aeroports :

Shizuoka, Japó

latitud: 34-47-46N, longitud: 138-11-22E, altitud: 132 m

Observació

L'informe es va fer fa 57 minuts, a les 02:00 UTC
Vent 7 kt del Nord-Est, variant entre Nord i Est
Temperatura 20°C
Humitat 53%
Pressió 1018 hPa
Visibilitat 10 km o més
Escasses núvols a una alçada de 3000 ft
Cel ennuvolat

METAR: RJNS 270200Z 05007KT 360V090 9999 FEW030 BKN/// 20/10 Q1018

Hora: 11:57 (02:57 UTC)

Pronòstic

L'informe es va fer fa 3 hores i 51 minuts, a les 23:06 UTC
Pronòstic vàlid del 27 a les 00 UTC al 28 a les 06 UTC
Vent 6 kt del Est/Sud-Est
Visibilitat 10 km o més
Escasses núvols a una alçada de 3000 ft
Evolucionant progressivament
l' 27 a les 07 UTC al 27 a les 09 UTC
Vent 6 kt del Nord/Nord-Oest
Evolucionant progressivament
l' 28 a les 00 UTC al 28 a les 03 UTC
Vent 6 kt del Sud/Sud-Est

TAF: RJNS 262306Z 2700/2806 12006KT 9999 FEW030 BECMG 2707/2709 34006KT BECMG 2800/2803 16006KT

Observacions i pronòstics meteorològics de més de 4000 aeroports (METAR i TAF).

Les estacions disponibles són els punts grocs i vermells al mapa.

Posi el ratolí al punt desitjat per veure el nom de l'estació.

Feu clic per veure les observacions i els pronòstics meteorològics.

Per canviar el mapa: feu clic els botons verds amb una creu de color negre per apropar; al botó verd amb un guió per allunyar la imatge; o en les fletxes verdes per a mapes adjacents.


METAR-TAF: